sensor_id;sensor_type;location;lat;lon;timestamp;pressure;altitude;pressure_sealevel;temperature
76586;BMP280;65251;51.022;13.736;2022-11-30T00:00:13;100011.66;;;5.46
76586;BMP280;65251;51.022;13.736;2022-11-30T00:01:10;100017.56;;;5.46
76586;BMP280;65251;51.022;13.736;2022-11-30T00:02:01;100022.50;;;5.48
76586;BMP280;65251;51.022;13.736;2022-11-30T00:02:55;100018.34;;;5.47
76586;BMP280;65251;51.022;13.736;2022-11-30T00:03:47;100013.41;;;5.45
76586;BMP280;65251;51.022;13.736;2022-11-30T00:04:40;100022.50;;;5.48
76586;BMP280;65251;51.022;13.736;2022-11-30T00:05:31;100015.63;;;5.48
76586;BMP280;65251;51.022;13.736;2022-11-30T00:06:24;100015.78;;;5.47
76586;BMP280;65251;51.022;13.736;2022-11-30T00:07:15;100020.91;;;5.47
76586;BMP280;65251;51.022;13.736;2022-11-30T00:08:07;100028.75;;;5.45
76586;BMP280;65251;51.022;13.736;2022-11-30T00:08:58;100023.31;;;5.48
76586;BMP280;65251;51.022;13.736;2022-11-30T00:09:50;100023.31;;;5.48
76586;BMP280;65251;51.022;13.736;2022-11-30T00:10:42;100017.38;;;5.48
76586;BMP280;65251;51.022;13.736;2022-11-30T00:11:34;100023.31;;;5.48
76586;BMP280;65251;51.022;13.736;2022-11-30T00:12:27;100025.88;;;5.48
76586;BMP280;65251;51.022;13.736;2022-11-30T00:13:19;100020.09;;;5.46
76586;BMP280;65251;51.022;13.736;2022-11-30T00:14:11;100021.72;;;5.47
76586;BMP280;65251;51.022;13.736;2022-11-30T00:15:03;100031.94;;;5.47
76586;BMP280;65251;51.022;13.736;2022-11-30T00:15:59;100033.53;;;5.48
76586;BMP280;65251;51.022;13.736;2022-11-30T00:16:51;100039.44;;;5.49
76586;BMP280;65251;51.022;13.736;2022-11-30T00:17:42;100026.47;;;5.50
76586;BMP280;65251;51.022;13.736;2022-11-30T00:18:35;100029.69;;;5.52
76586;BMP280;65251;51.022;13.736;2022-11-30T00:19:26;100033.84;;;5.53
76586;BMP280;65251;51.022;13.736;2022-11-30T00:20:20;100030.34;;;5.54
76586;BMP280;65251;51.022;13.736;2022-11-30T00:21:13;100045.81;;;5.53
76586;BMP280;65251;51.022;13.736;2022-11-30T00:22:05;100041.53;;;5.53
76586;BMP280;65251;51.022;13.736;2022-11-30T00:22:57;100032.25;;;5.52
76586;BMP280;65251;51.022;13.736;2022-11-30T00:23:49;100030.47;;;5.53
76586;BMP280;65251;51.022;13.736;2022-11-30T00:24:40;100031.28;;;5.53
76586;BMP280;65251;51.022;13.736;2022-11-30T00:25:32;100038.97;;;5.53
76586;BMP280;65251;51.022;13.736;2022-11-30T00:26:23;100028.72;;;5.53
76586;BMP280;65251;51.022;13.736;2022-11-30T00:27:15;100031.28;;;5.53
76586;BMP280;65251;51.022;13.736;2022-11-30T00:28:06;100027.91;;;5.53
76586;BMP280;65251;51.022;13.736;2022-11-30T00:28:58;100038.16;;;5.53
76586;BMP280;65251;51.022;13.736;2022-11-30T00:29:49;100024.56;;;5.52
76586;BMP280;65251;51.022;13.736;2022-11-30T00:30:41;100032.25;;;5.52
76586;BMP280;65251;51.022;13.736;2022-11-30T00:31:32;100028.72;;;5.53
76586;BMP280;65251;51.022;13.736;2022-11-30T00:32:25;100036.09;;;5.56
76586;BMP280;65251;51.022;13.736;2022-11-30T00:33:16;100031.75;;;5.57
76586;BMP280;65251;51.022;13.736;2022-11-30T00:34:08;100034.16;;;5.58
76586;BMP280;65251;51.022;13.736;2022-11-30T00:34:59;100031.75;;;5.57
76586;BMP280;65251;51.022;13.736;2022-11-30T00:35:56;100030.00;;;5.57
76586;BMP280;65251;51.022;13.736;2022-11-30T00:36:48;100031.94;;;5.55
76586;BMP280;65251;51.022;13.736;2022-11-30T00:37:40;100032.06;;;5.54
76586;BMP280;65251;51.022;13.736;2022-11-30T00:38:31;100031.28;;;5.53
76586;BMP280;65251;51.022;13.736;2022-11-30T00:39:24;100035.13;;;5.49
76586;BMP280;65251;51.022;13.736;2022-11-30T00:40:15;100035.13;;;5.49
76586;BMP280;65251;51.022;13.736;2022-11-30T00:41:07;100033.53;;;5.48
76586;BMP280;65251;51.022;13.736;2022-11-30T00:41:58;100036.72;;;5.50
76586;BMP280;65251;51.022;13.736;2022-11-30T00:42:50;100035.13;;;5.49
76586;BMP280;65251;51.022;13.736;2022-11-30T00:43:42;100034.31;;;5.49
76586;BMP280;65251;51.022;13.736;2022-11-30T00:44:34;100036.88;;;5.49
76586;BMP280;65251;51.022;13.736;2022-11-30T00:45:25;100033.53;;;5.48
76586;BMP280;65251;51.022;13.736;2022-11-30T00:46:17;100033.53;;;5.48
76586;BMP280;65251;51.022;13.736;2022-11-30T00:47:08;100035.13;;;5.49
76586;BMP280;65251;51.022;13.736;2022-11-30T00:48:00;100037.53;;;5.51
76586;BMP280;65251;51.022;13.736;2022-11-30T00:48:51;100040.88;;;5.51
76586;BMP280;65251;51.022;13.736;2022-11-30T00:49:43;100040.09;;;5.51
76586;BMP280;65251;51.022;13.736;2022-11-30T00:50:34;100026.47;;;5.50
76586;BMP280;65251;51.022;13.736;2022-11-30T00:51:27;100030.66;;;5.51
76586;BMP280;65251;51.022;13.736;2022-11-30T00:52:18;100027.13;;;5.52
76586;BMP280;65251;51.022;13.736;2022-11-30T00:53:10;100030.47;;;5.53
76586;BMP280;65251;51.022;13.736;2022-11-30T00:54:01;100032.06;;;5.54
76586;BMP280;65251;51.022;13.736;2022-11-30T00:54:53;100041.53;;;5.53
76586;BMP280;65251;51.022;13.736;2022-11-30T00:55:45;100032.06;;;5.54
76586;BMP280;65251;51.022;13.736;2022-11-30T00:56:37;100028.56;;;5.55
76586;BMP280;65251;51.022;13.736;2022-11-30T00:57:28;100027.78;;;5.54
76586;BMP280;65251;51.022;13.736;2022-11-30T00:58:21;100031.94;;;5.55
76586;BMP280;65251;51.022;13.736;2022-11-30T00:59:12;100028.56;;;5.55
76586;BMP280;65251;51.022;13.736;2022-11-30T01:00:06;100030.97;;;5.56
76586;BMP280;65251;51.022;13.736;2022-11-30T01:00:57;100029.03;;;5.58
76586;BMP280;65251;51.022;13.736;2022-11-30T01:01:49;100027.13;;;5.60
76586;BMP280;65251;51.022;13.736;2022-11-30T01:02:40;100029.69;;;5.60
76586;BMP280;65251;51.022;13.736;2022-11-30T01:03:32;100034.81;;;5.60
76586;BMP280;65251;51.022;13.736;2022-11-30T01:04:23;100025.53;;;5.59
76586;BMP280;65251;51.022;13.736;2022-11-30T01:05:15;100029.84;;;5.59
76586;BMP280;65251;51.022;13.736;2022-11-30T01:06:08;100022.00;;;5.60
76586;BMP280;65251;51.022;13.736;2022-11-30T01:07:02;100023.63;;;5.61
76586;BMP280;65251;51.022;13.736;2022-11-30T01:07:53;100030.31;;;5.62
76586;BMP280;65251;51.022;13.736;2022-11-30T01:08:45;100023.63;;;5.61
76586;BMP280;65251;51.022;13.736;2022-11-30T01:09:37;100027.75;;;5.62
76586;BMP280;65251;51.022;13.736;2022-11-30T01:10:29;100023.28;;;5.64
76586;BMP280;65251;51.022;13.736;2022-11-30T01:11:23;100028.38;;;5.64
76586;BMP280;65251;51.022;13.736;2022-11-30T01:12:15;100031.91;;;5.63
76586;BMP280;65251;51.022;13.736;2022-11-30T01:13:06;100024.38;;;5.62
76586;BMP280;65251;51.022;13.736;2022-11-30T01:13:59;100026.19;;;5.61
76586;BMP280;65251;51.022;13.736;2022-11-30T01:14:50;100028.72;;;5.61
76586;BMP280;65251;51.022;13.736;2022-11-30T01:15:43;100025.19;;;5.62
76586;BMP280;65251;51.022;13.736;2022-11-30T01:16:34;100028.38;;;5.64
76586;BMP280;65251;51.022;13.736;2022-11-30T01:17:26;100028.38;;;5.64
76586;BMP280;65251;51.022;13.736;2022-11-30T01:18:17;100023.28;;;5.64
76586;BMP280;65251;51.022;13.736;2022-11-30T01:19:09;100028.38;;;5.64
76586;BMP280;65251;51.022;13.736;2022-11-30T01:20:00;100025.50;;;5.67
76586;BMP280;65251;51.022;13.736;2022-11-30T01:20:52;100021.66;;;5.63
76586;BMP280;65251;51.022;13.736;2022-11-30T01:21:43;100023.09;;;5.65
76586;BMP280;65251;51.022;13.736;2022-11-30T01:22:36;100022.94;;;5.67
76586;BMP280;65251;51.022;13.736;2022-11-30T01:23:27;100027.09;;;5.68
76586;BMP280;65251;51.022;13.736;2022-11-30T01:24:18;100015.59;;;5.64
76586;BMP280;65251;51.022;13.736;2022-11-30T01:25:10;100017.34;;;5.63
76586;BMP280;65251;51.022;13.736;2022-11-30T01:26:02;100021.66;;;5.63
76586;BMP280;65251;51.022;13.736;2022-11-30T01:26:54;100016.56;;;5.63
76586;BMP280;65251;51.022;13.736;2022-11-30T01:27:47;100019.13;;;5.63
76586;BMP280;65251;51.022;13.736;2022-11-30T01:28:40;100019.13;;;5.63
76586;BMP280;65251;51.022;13.736;2022-11-30T01:29:31;100023.41;;;5.63
76586;BMP280;65251;51.022;13.736;2022-11-30T01:30:23;100016.91;;;5.60
76586;BMP280;65251;51.022;13.736;2022-11-30T01:31:14;100019.44;;;5.60
76586;BMP280;65251;51.022;13.736;2022-11-30T01:32:06;100019.63;;;5.59
76586;BMP280;65251;51.022;13.736;2022-11-30T01:33:01;100015.28;;;5.59
76586;BMP280;65251;51.022;13.736;2022-11-30T01:33:54;100027.91;;;5.61
76586;BMP280;65251;51.022;13.736;2022-11-30T01:34:45;100014.66;;;5.57
76586;BMP280;65251;51.022;13.736;2022-11-30T01:35:37;100017.22;;;5.57
76586;BMP280;65251;51.022;13.736;2022-11-30T01:36:28;100022.31;;;5.57
76586;BMP280;65251;51.022;13.736;2022-11-30T01:37:20;100015.63;;;5.56
76586;BMP280;65251;51.022;13.736;2022-11-30T01:38:13;100018.34;;;5.55
76586;BMP280;65251;51.022;13.736;2022-11-30T01:39:07;100011.63;;;5.54
76586;BMP280;65251;51.022;13.736;2022-11-30T01:39:58;100015.63;;;5.56
76586;BMP280;65251;51.022;13.736;2022-11-30T01:40:50;100018.81;;;5.58
76586;BMP280;65251;51.022;13.736;2022-11-30T01:41:42;100021.38;;;5.58
76586;BMP280;65251;51.022;13.736;2022-11-30T01:42:34;100023.94;;;5.58
76586;BMP280;65251;51.022;13.736;2022-11-30T01:43:38;100022.31;;;5.57
76586;BMP280;65251;51.022;13.736;2022-11-30T01:44:49;100021.84;;;5.54
76586;BMP280;65251;51.022;13.736;2022-11-30T01:45:40;100021.06;;;5.53
76586;BMP280;65251;51.022;13.736;2022-11-30T01:46:36;100024.25;;;5.55
76586;BMP280;65251;51.022;13.736;2022-11-30T01:47:32;100024.56;;;5.52
76586;BMP280;65251;51.022;13.736;2022-11-30T01:48:27;100030.47;;;5.53
76586;BMP280;65251;51.022;13.736;2022-11-30T01:49:26;100023.78;;;5.52
76586;BMP280;65251;51.022;13.736;2022-11-30T01:50:22;100028.09;;;5.51
76586;BMP280;65251;51.022;13.736;2022-11-30T01:51:16;100021.22;;;5.52
76586;BMP280;65251;51.022;13.736;2022-11-30T01:52:13;100027.13;;;5.52
76586;BMP280;65251;51.022;13.736;2022-11-30T01:53:06;100022.97;;;5.51
76586;BMP280;65251;51.022;13.736;2022-11-30T01:54:04;100022.97;;;5.51
76586;BMP280;65251;51.022;13.736;2022-11-30T01:55:05;100024.75;;;5.51
76586;BMP280;65251;51.022;13.736;2022-11-30T01:55:58;100023.94;;;5.50
76586;BMP280;65251;51.022;13.736;2022-11-30T01:56:53;100017.84;;;5.51
76586;BMP280;65251;51.022;13.736;2022-11-30T01:57:51;100026.47;;;5.50
76586;BMP280;65251;51.022;13.736;2022-11-30T01:58:44;100017.22;;;5.49
76586;BMP280;65251;51.022;13.736;2022-11-30T01:59:37;100016.59;;;5.47
76586;BMP280;65251;51.022;13.736;2022-11-30T02:00:28;100023.31;;;5.48
76586;BMP280;65251;51.022;13.736;2022-11-30T02:01:20;100031.13;;;5.47
76586;BMP280;65251;51.022;13.736;2022-11-30T02:02:12;100021.72;;;5.47
76586;BMP280;65251;51.022;13.736;2022-11-30T02:03:09;100031.31;;;5.45
76586;BMP280;65251;51.022;13.736;2022-11-30T02:04:07;100021.09;;;5.45
76586;BMP280;65251;51.022;13.736;2022-11-30T02:05:01;100020.91;;;5.47
76586;BMP280;65251;51.022;13.736;2022-11-30T02:05:52;100024.25;;;5.47
76586;BMP280;65251;51.022;13.736;2022-11-30T02:06:46;100032.88;;;5.46
76586;BMP280;65251;51.022;13.736;2022-11-30T02:07:38;100032.28;;;5.44
76586;BMP280;65251;51.022;13.736;2022-11-30T02:08:30;100025.09;;;5.40
76586;BMP280;65251;51.022;13.736;2022-11-30T02:09:26;100039.31;;;5.42
76586;BMP280;65251;51.022;13.736;2022-11-30T02:10:24;100031.63;;;5.42
76586;BMP280;65251;51.022;13.736;2022-11-30T02:11:16;100031.00;;;5.40
76586;BMP280;65251;51.022;13.736;2022-11-30T02:12:18;100031.63;;;5.42
76586;BMP280;65251;51.022;13.736;2022-11-30T02:13:36;100033.22;;;5.35
76586;BMP280;65251;51.022;13.736;2022-11-30T02:14:38;100036.75;;;5.34
76586;BMP280;65251;51.022;13.736;2022-11-30T02:15:41;100035.31;;;5.32
76586;BMP280;65251;51.022;13.736;2022-11-30T02:16:47;100037.25;;;5.30
76586;BMP280;65251;51.022;13.736;2022-11-30T02:17:50;100040.75;;;5.29
76586;BMP280;65251;51.022;13.736;2022-11-30T02:18:52;100033.41;;;5.26
76586;BMP280;65251;51.022;13.736;2022-11-30T02:20:09;100034.38;;;5.25
76586;BMP280;65251;51.022;13.736;2022-11-30T02:21:12;100032.94;;;5.22
76586;BMP280;65251;51.022;13.736;2022-11-30T02:22:18;100030.50;;;5.21
76586;BMP280;65251;51.022;13.736;2022-11-30T02:23:55;100041.56;;;5.21
76586;BMP280;65251;51.022;13.736;2022-11-30T02:25:06;100039.16;;;5.20
76586;BMP280;65251;51.022;13.736;2022-11-30T02:26:10;100037.09;;;5.15
76586;BMP280;65251;51.022;13.736;2022-11-30T02:27:19;100038.84;;;5.15
76586;BMP280;65251;51.022;13.736;2022-11-30T02:28:43;100039.81;;;5.14
76586;BMP280;65251;51.022;13.736;2022-11-30T02:29:44;100049.25;;;5.13
76586;BMP280;65251;51.022;13.736;2022-11-30T02:30:42;100044.91;;;5.14
76586;BMP280;65251;51.022;13.736;2022-11-30T02:31:43;100045.75;;;5.14
76586;BMP280;65251;51.022;13.736;2022-11-30T02:32:44;100045.25;;;5.11
76586;BMP280;65251;51.022;13.736;2022-11-30T02:33:40;100039.31;;;5.10
76586;BMP280;65251;51.022;13.736;2022-11-30T02:34:36;100049.53;;;5.10
76586;BMP280;65251;51.022;13.736;2022-11-30T02:35:31;100039.66;;;5.07
76586;BMP280;65251;51.022;13.736;2022-11-30T02:36:23;100039.50;;;5.09
76586;BMP280;65251;51.022;13.736;2022-11-30T02:37:17;100040.28;;;5.09
76586;BMP280;65251;51.022;13.736;2022-11-30T02:38:10;100036.94;;;5.09
76586;BMP280;65251;51.022;13.736;2022-11-30T02:39:04;100035.16;;;5.09
76586;BMP280;65251;51.022;13.736;2022-11-30T02:39:57;100032.63;;;5.09
76586;BMP280;65251;51.022;13.736;2022-11-30T02:40:48;100035.97;;;5.10
76586;BMP280;65251;51.022;13.736;2022-11-30T02:41:40;100042.03;;;5.09
76586;BMP280;65251;51.022;13.736;2022-11-30T02:42:31;100039.66;;;5.07
76586;BMP280;65251;51.022;13.736;2022-11-30T02:43:27;100034.69;;;5.06
76586;BMP280;65251;51.022;13.736;2022-11-30T02:44:21;100039.66;;;5.07
76586;BMP280;65251;51.022;13.736;2022-11-30T02:45:15;100032.94;;;5.06
76586;BMP280;65251;51.022;13.736;2022-11-30T02:46:13;100039.00;;;5.05
76586;BMP280;65251;51.022;13.736;2022-11-30T02:47:15;100034.69;;;5.06
76586;BMP280;65251;51.022;13.736;2022-11-30T02:48:09;100031.16;;;5.07
76586;BMP280;65251;51.022;13.736;2022-11-30T02:49:08;100027.00;;;5.06
76586;BMP280;65251;51.022;13.736;2022-11-30T02:50:09;100033.91;;;5.05
76586;BMP280;65251;51.022;13.736;2022-11-30T02:51:06;100029.56;;;5.06
76586;BMP280;65251;51.022;13.736;2022-11-30T02:52:00;100031.34;;;5.05
76586;BMP280;65251;51.022;13.736;2022-11-30T02:52:54;100027.19;;;5.04
76586;BMP280;65251;51.022;13.736;2022-11-30T02:53:46;100028.94;;;5.04
76586;BMP280;65251;51.022;13.736;2022-11-30T02:54:39;100035.16;;;5.01
76586;BMP280;65251;51.022;13.736;2022-11-30T02:55:30;100039.31;;;5.02
76586;BMP280;65251;51.022;13.736;2022-11-30T02:56:23;100042.19;;;4.99
76586;BMP280;65251;51.022;13.736;2022-11-30T02:57:15;100039.03;;;4.98
76586;BMP280;65251;51.022;13.736;2022-11-30T02:58:07;100038.19;;;4.97
76586;BMP280;65251;51.022;13.736;2022-11-30T02:58:58;100047.63;;;4.97
76586;BMP280;65251;51.022;13.736;2022-11-30T02:59:52;100045.88;;;4.97
76586;BMP280;65251;51.022;13.736;2022-11-30T03:00:44;100049.25;;;4.98
76586;BMP280;65251;51.022;13.736;2022-11-30T03:01:36;100051.47;;;4.93
76586;BMP280;65251;51.022;13.736;2022-11-30T03:02:28;100042.50;;;4.89
76586;BMP280;65251;51.022;13.736;2022-11-30T03:03:20;100039.94;;;4.89
76586;BMP280;65251;51.022;13.736;2022-11-30T03:04:11;100040.75;;;4.89
76586;BMP280;65251;51.022;13.736;2022-11-30T03:05:04;100045.84;;;4.89
76586;BMP280;65251;51.022;13.736;2022-11-30T03:05:55;100057.66;;;4.90
76586;BMP280;65251;51.022;13.736;2022-11-30T03:06:47;100053.69;;;4.88
76586;BMP280;65251;51.022;13.736;2022-11-30T03:07:38;100045.38;;;4.86
76586;BMP280;65251;51.022;13.736;2022-11-30T03:08:30;100054.78;;;4.85
76586;BMP280;65251;51.022;13.736;2022-11-30T03:09:21;100063.56;;;4.83
76586;BMP280;65251;51.022;13.736;2022-11-30T03:10:13;100056.25;;;4.80
76586;BMP280;65251;51.022;13.736;2022-11-30T03:11:04;100055.59;;;4.78
76586;BMP280;65251;51.022;13.736;2022-11-30T03:11:57;100061.97;;;4.74
76586;BMP280;65251;51.022;13.736;2022-11-30T03:12:48;100060.66;;;4.70
76586;BMP280;65251;51.022;13.736;2022-11-30T03:13:40;100059.72;;;4.71
76586;BMP280;65251;51.022;13.736;2022-11-30T03:14:31;100060.84;;;4.68
76586;BMP280;65251;51.022;13.736;2022-11-30T03:15:24;100061.94;;;4.66
76586;BMP280;65251;51.022;13.736;2022-11-30T03:16:15;100057.63;;;4.66
76586;BMP280;65251;51.022;13.736;2022-11-30T03:17:07;100057.78;;;4.65
76586;BMP280;65251;51.022;13.736;2022-11-30T03:18:00;100064.19;;;4.61
76586;BMP280;65251;51.022;13.736;2022-11-30T03:18:52;100064.81;;;4.63
76586;BMP280;65251;51.022;13.736;2022-11-30T03:19:43;100064.34;;;4.59
76586;BMP280;65251;51.022;13.736;2022-11-30T03:20:39;100065.94;;;4.60
76586;BMP280;65251;51.022;13.736;2022-11-30T03:21:31;100069.44;;;4.59
76586;BMP280;65251;51.022;13.736;2022-11-30T03:22:23;100067.72;;;4.60
76586;BMP280;65251;51.022;13.736;2022-11-30T03:23:14;100061.00;;;4.59
76586;BMP280;65251;51.022;13.736;2022-11-30T03:24:07;100065.94;;;4.60
76586;BMP280;65251;51.022;13.736;2022-11-30T03:24:58;100068.50;;;4.60
76586;BMP280;65251;51.022;13.736;2022-11-30T03:25:50;100063.69;;;4.57
76586;BMP280;65251;51.022;13.736;2022-11-30T03:26:41;100067.03;;;4.58
76586;BMP280;65251;51.022;13.736;2022-11-30T03:27:33;100069.75;;;4.56
76586;BMP280;65251;51.022;13.736;2022-11-30T03:28:25;100068.94;;;4.56
76586;BMP280;65251;51.022;13.736;2022-11-30T03:29:17;100072.44;;;4.55
76586;BMP280;65251;51.022;13.736;2022-11-30T03:30:09;100075.31;;;4.52
76586;BMP280;65251;51.022;13.736;2022-11-30T03:31:03;100070.50;;;4.49
76586;BMP280;65251;51.022;13.736;2022-11-30T03:31:54;100073.41;;;4.46
76586;BMP280;65251;51.022;13.736;2022-11-30T03:32:46;100067.16;;;4.40
76586;BMP280;65251;51.022;13.736;2022-11-30T03:33:37;100072.41;;;4.39
76586;BMP280;65251;51.022;13.736;2022-11-30T03:34:29;100071.91;;;4.35
76586;BMP280;65251;51.022;13.736;2022-11-30T03:35:20;100068.56;;;4.35
76586;BMP280;65251;51.022;13.736;2022-11-30T03:36:13;100071.13;;;4.35
76586;BMP280;65251;51.022;13.736;2022-11-30T03:37:04;100064.41;;;4.34
76586;BMP280;65251;51.022;13.736;2022-11-30T03:37:56;100077.19;;;4.34
76586;BMP280;65251;51.022;13.736;2022-11-30T03:38:47;100068.88;;;4.32
76586;BMP280;65251;51.022;13.736;2022-11-30T03:39:39;100068.88;;;4.32
76586;BMP280;65251;51.022;13.736;2022-11-30T03:40:30;100075.56;;;4.33
76586;BMP280;65251;51.022;13.736;2022-11-30T03:41:22;100067.25;;;4.31
76586;BMP280;65251;51.022;13.736;2022-11-30T03:42:13;100078.41;;;4.30
76586;BMP280;65251;51.022;13.736;2022-11-30T03:43:05;100071.75;;;4.29
76586;BMP280;65251;51.022;13.736;2022-11-30T03:43:56;100082.91;;;4.28
76586;BMP280;65251;51.022;13.736;2022-11-30T03:44:48;100079.72;;;4.26
76586;BMP280;65251;51.022;13.736;2022-11-30T03:45:39;100076.50;;;4.24
76586;BMP280;65251;51.022;13.736;2022-11-30T03:46:36;100073.00;;;4.25
76586;BMP280;65251;51.022;13.736;2022-11-30T03:47:27;100073.16;;;4.24
76586;BMP280;65251;51.022;13.736;2022-11-30T03:48:20;100075.72;;;4.24
76586;BMP280;65251;51.022;13.736;2022-11-30T03:49:11;100080.66;;;4.25
76586;BMP280;65251;51.022;13.736;2022-11-30T03:50:04;100079.06;;;4.24
76586;BMP280;65251;51.022;13.736;2022-11-30T03:50:55;100080.66;;;4.25
76586;BMP280;65251;51.022;13.736;2022-11-30T03:51:47;100076.34;;;4.26
76586;BMP280;65251;51.022;13.736;2022-11-30T03:52:38;100074.78;;;4.25
76586;BMP280;65251;51.022;13.736;2022-11-30T03:53:31;100074.78;;;4.25
76586;BMP280;65251;51.022;13.736;2022-11-30T03:54:22;100079.06;;;4.24
76586;BMP280;65251;51.022;13.736;2022-11-30T03:55:14;100084.16;;;4.24
76586;BMP280;65251;51.022;13.736;2022-11-30T03:56:07;100077.44;;;4.23
76586;BMP280;65251;51.022;13.736;2022-11-30T03:56:59;100074.78;;;4.25
76586;BMP280;65251;51.022;13.736;2022-11-30T03:57:50;100082.56;;;4.23
76586;BMP280;65251;51.022;13.736;2022-11-30T03:58:42;100085.28;;;4.22
76586;BMP280;65251;51.022;13.736;2022-11-30T03:59:33;100071.72;;;4.21
76586;BMP280;65251;51.022;13.736;2022-11-30T04:00:25;100077.63;;;4.22
76586;BMP280;65251;51.022;13.736;2022-11-30T04:01:19;100078.56;;;4.21
76586;BMP280;65251;51.022;13.736;2022-11-30T04:02:13;100077.78;;;4.20
76586;BMP280;65251;51.022;13.736;2022-11-30T04:03:04;100078.72;;;4.19
76586;BMP280;65251;51.022;13.736;2022-11-30T04:03:56;100087.31;;;4.18
76586;BMP280;65251;51.022;13.736;2022-11-30T04:04:47;100087.47;;;4.17
76586;BMP280;65251;51.022;13.736;2022-11-30T04:05:39;100082.38;;;4.17
76586;BMP280;65251;51.022;13.736;2022-11-30T04:06:30;100084.28;;;4.15
76586;BMP280;65251;51.022;13.736;2022-11-30T04:07:22;100086.97;;;4.13
76586;BMP280;65251;51.022;13.736;2022-11-30T04:08:13;100077.06;;;4.10
76586;BMP280;65251;51.022;13.736;2022-11-30T04:09:05;100085.81;;;4.08
76586;BMP280;65251;51.022;13.736;2022-11-30T04:09:56;100086.00;;;4.06
76586;BMP280;65251;51.022;13.736;2022-11-30T04:10:50;100081.84;;;4.05
76586;BMP280;65251;51.022;13.736;2022-11-30T04:11:41;100082.94;;;4.03
76586;BMP280;65251;51.022;13.736;2022-11-30T04:12:33;100082.16;;;4.02
76586;BMP280;65251;51.022;13.736;2022-11-30T04:13:25;100080.53;;;4.01
76586;BMP280;65251;51.022;13.736;2022-11-30T04:14:17;100082.44;;;3.99
76586;BMP280;65251;51.022;13.736;2022-11-30T04:15:09;100077.19;;;4.01
76586;BMP280;65251;51.022;13.736;2022-11-30T04:16:02;100078.00;;;4.01
76586;BMP280;65251;51.022;13.736;2022-11-30T04:16:53;100078.00;;;4.01
76586;BMP280;65251;51.022;13.736;2022-11-30T04:17:47;100078.78;;;4.02
76586;BMP280;65251;51.022;13.736;2022-11-30T04:18:39;100084.97;;;3.99
76586;BMP280;65251;51.022;13.736;2022-11-30T04:19:31;100079.09;;;3.99
76586;BMP280;65251;51.022;13.736;2022-11-30T04:20:22;100077.66;;;3.96
76586;BMP280;65251;51.022;13.736;2022-11-30T04:21:14;100078.59;;;3.95
76586;BMP280;65251;51.022;13.736;2022-11-30T04:22:05;100080.50;;;3.93
76586;BMP280;65251;51.022;13.736;2022-11-30T04:22:57;100080.50;;;3.93
76586;BMP280;65251;51.022;13.736;2022-11-30T04:23:48;100078.88;;;3.92
76586;BMP280;65251;51.022;13.736;2022-11-30T04:24:40;100071.53;;;3.89
76586;BMP280;65251;51.022;13.736;2022-11-30T04:25:31;100080.13;;;3.88
76586;BMP280;65251;51.022;13.736;2022-11-30T04:26:23;100080.47;;;3.85
76586;BMP280;65251;51.022;13.736;2022-11-30T04:27:14;100077.91;;;3.85
76586;BMP280;65251;51.022;13.736;2022-11-30T04:28:07;100086.50;;;3.84
76586;BMP280;65251;51.022;13.736;2022-11-30T04:28:58;100082.50;;;3.82
76586;BMP280;65251;51.022;13.736;2022-11-30T04:29:50;100090.31;;;3.80
76586;BMP280;65251;51.022;13.736;2022-11-30T04:30:42;100093.81;;;3.79
76586;BMP280;65251;51.022;13.736;2022-11-30T04:31:34;100087.09;;;3.78
76586;BMP280;65251;51.022;13.736;2022-11-30T04:32:25;100083.91;;;3.76
76586;BMP280;65251;51.022;13.736;2022-11-30T04:33:18;100084.84;;;3.75
76586;BMP280;65251;51.022;13.736;2022-11-30T04:34:09;100089.94;;;3.75
76586;BMP280;65251;51.022;13.736;2022-11-30T04:35:01;100084.22;;;3.73
76586;BMP280;65251;51.022;13.736;2022-11-30T04:35:55;100082.59;;;3.72
76586;BMP280;65251;51.022;13.736;2022-11-30T04:36:46;100086.88;;;3.72
76586;BMP280;65251;51.022;13.736;2022-11-30T04:37:38;100082.72;;;3.71
76586;BMP280;65251;51.022;13.736;2022-11-30T04:38:29;100090.38;;;3.71
76586;BMP280;65251;51.022;13.736;2022-11-30T04:39:22;100082.72;;;3.71
76586;BMP280;65251;51.022;13.736;2022-11-30T04:40:13;100092.94;;;3.71
76586;BMP280;65251;51.022;13.736;2022-11-30T04:41:08;100088.78;;;3.70
76586;BMP280;65251;51.022;13.736;2022-11-30T04:42:00;100081.28;;;3.68
76586;BMP280;65251;51.022;13.736;2022-11-30T04:42:51;100078.56;;;3.70
76586;BMP280;65251;51.022;13.736;2022-11-30T04:43:43;100084.66;;;3.69
76586;BMP280;65251;51.022;13.736;2022-11-30T04:44:34;100074.44;;;3.69
76586;BMP280;65251;51.022;13.736;2022-11-30T04:45:26;100076.19;;;3.68
76586;BMP280;65251;51.022;13.736;2022-11-30T04:46:17;100083.84;;;3.68
76586;BMP280;65251;51.022;13.736;2022-11-30T04:47:09;100081.28;;;3.68
76586;BMP280;65251;51.022;13.736;2022-11-30T04:48:00;100080.63;;;3.66
76586;BMP280;65251;51.022;13.736;2022-11-30T04:48:54;100079.69;;;3.67
76586;BMP280;65251;51.022;13.736;2022-11-30T04:49:45;100084.16;;;3.65
76586;BMP280;65251;51.022;13.736;2022-11-30T04:50:37;100082.56;;;3.65
76586;BMP280;65251;51.022;13.736;2022-11-30T04:51:29;100085.13;;;3.65
76586;BMP280;65251;51.022;13.736;2022-11-30T04:52:21;100085.91;;;3.65
76586;BMP280;65251;51.022;13.736;2022-11-30T04:53:12;100086.19;;;3.62
76586;BMP280;65251;51.022;13.736;2022-11-30T04:54:04;100086.34;;;3.61
76586;BMP280;65251;51.022;13.736;2022-11-30T04:54:55;100087.94;;;3.62
76586;BMP280;65251;51.022;13.736;2022-11-30T04:55:47;100088.91;;;3.61
76586;BMP280;65251;51.022;13.736;2022-11-30T04:56:38;100083.78;;;3.61
76586;BMP280;65251;51.022;13.736;2022-11-30T04:57:30;100085.41;;;3.62
76586;BMP280;65251;51.022;13.736;2022-11-30T04:58:21;100090.66;;;3.60
76586;BMP280;65251;51.022;13.736;2022-11-30T04:59:13;100094.00;;;3.61
76586;BMP280;65251;51.022;13.736;2022-11-30T05:00:06;100090.78;;;3.59
76586;BMP280;65251;51.022;13.736;2022-11-30T05:00:58;100089.22;;;3.58
76586;BMP280;65251;51.022;13.736;2022-11-30T05:01:49;100086.66;;;3.58
76586;BMP280;65251;51.022;13.736;2022-11-30T05:02:42;100091.75;;;3.58